sensor_id;sensor_type;location;lat;lon;timestamp;temperature;humidity
52765;DHT22;38650;44.536;18.664;2023-04-03T00:01:54;11.80;99.90
52765;DHT22;38650;44.536;18.664;2023-04-03T00:04:20;11.70;99.90
52765;DHT22;38650;44.536;18.664;2023-04-03T00:06:45;11.80;99.90
52765;DHT22;38650;44.536;18.664;2023-04-03T00:09:11;11.80;99.90
52765;DHT22;38650;44.536;18.664;2023-04-03T00:11:36;11.80;99.90
52765;DHT22;38650;44.536;18.664;2023-04-03T00:14:02;11.60;99.90
52765;DHT22;38650;44.536;18.664;2023-04-03T00:16:28;11.60;99.90
52765;DHT22;38650;44.536;18.664;2023-04-03T00:18:53;11.40;99.90
52765;DHT22;38650;44.536;18.664;2023-04-03T00:21:19;11.40;99.90
52765;DHT22;38650;44.536;18.664;2023-04-03T00:23:45;11.30;99.90
52765;DHT22;38650;44.536;18.664;2023-04-03T00:26:10;11.20;99.90
52765;DHT22;38650;44.536;18.664;2023-04-03T00:28:36;11.20;99.90
52765;DHT22;38650;44.536;18.664;2023-04-03T00:31:01;11.30;99.90
52765;DHT22;38650;44.536;18.664;2023-04-03T00:33:27;11.30;99.90
52765;DHT22;38650;44.536;18.664;2023-04-03T00:35:53;11.40;99.90
52765;DHT22;38650;44.536;18.664;2023-04-03T00:38:18;11.50;99.90
52765;DHT22;38650;44.536;18.664;2023-04-03T00:40:45;11.60;99.90
52765;DHT22;38650;44.536;18.664;2023-04-03T00:43:15;11.50;99.90
52765;DHT22;38650;44.536;18.664;2023-04-03T00:45:42;11.40;99.90
52765;DHT22;38650;44.536;18.664;2023-04-03T00:48:10;11.30;99.90
52765;DHT22;38650;44.536;18.664;2023-04-03T00:50:38;11.30;99.90
52765;DHT22;38650;44.536;18.664;2023-04-03T00:53:04;11.30;99.90
52765;DHT22;38650;44.536;18.664;2023-04-03T00:55:31;11.30;99.90
52765;DHT22;38650;44.536;18.664;2023-04-03T00:57:57;11.20;99.90
52765;DHT22;38650;44.536;18.664;2023-04-03T01:00:24;11.20;99.90
52765;DHT22;38650;44.536;18.664;2023-04-03T01:02:50;11.20;99.90
52765;DHT22;38650;44.536;18.664;2023-04-03T01:05:16;11.20;99.90
52765;DHT22;38650;44.536;18.664;2023-04-03T01:07:42;11.20;99.90
52765;DHT22;38650;44.536;18.664;2023-04-03T01:10:09;11.30;99.90
52765;DHT22;38650;44.536;18.664;2023-04-03T01:12:40;11.30;99.90
52765;DHT22;38650;44.536;18.664;2023-04-03T01:20:02;10.90;99.90
52765;DHT22;38650;44.536;18.664;2023-04-03T01:22:34;10.70;99.90
52765;DHT22;38650;44.536;18.664;2023-04-03T01:25:05;10.70;99.90
52765;DHT22;38650;44.536;18.664;2023-04-03T01:27:30;10.70;99.90
52765;DHT22;38650;44.536;18.664;2023-04-03T01:29:56;10.50;99.90
52765;DHT22;38650;44.536;18.664;2023-04-03T01:32:22;10.50;99.90
52765;DHT22;38650;44.536;18.664;2023-04-03T01:34:47;10.50;99.90
52765;DHT22;38650;44.536;18.664;2023-04-03T01:37:13;10.50;99.90
52765;DHT22;38650;44.536;18.664;2023-04-03T01:39:38;10.30;99.90
52765;DHT22;38650;44.536;18.664;2023-04-03T01:42:04;10.10;99.90
52765;DHT22;38650;44.536;18.664;2023-04-03T01:44:30;10.00;99.90
52765;DHT22;38650;44.536;18.664;2023-04-03T01:46:56;10.00;99.90
52765;DHT22;38650;44.536;18.664;2023-04-03T01:49:21;9.80;99.90
52765;DHT22;38650;44.536;18.664;2023-04-03T01:51:47;9.80;99.90
52765;DHT22;38650;44.536;18.664;2023-04-03T01:54:13;9.70;99.90
52765;DHT22;38650;44.536;18.664;2023-04-03T01:56:38;9.50;99.90
52765;DHT22;38650;44.536;18.664;2023-04-03T01:59:04;9.30;99.90
52765;DHT22;38650;44.536;18.664;2023-04-03T02:01:30;9.30;99.90
52765;DHT22;38650;44.536;18.664;2023-04-03T02:03:55;9.10;99.90
52765;DHT22;38650;44.536;18.664;2023-04-03T02:06:21;9.20;99.90
52765;DHT22;38650;44.536;18.664;2023-04-03T02:08:46;9.10;99.90
52765;DHT22;38650;44.536;18.664;2023-04-03T02:11:12;9.10;99.90
52765;DHT22;38650;44.536;18.664;2023-04-03T02:13:37;9.30;99.90
52765;DHT22;38650;44.536;18.664;2023-04-03T02:16:07;9.40;99.90
52765;DHT22;38650;44.536;18.664;2023-04-03T02:18:33;9.40;99.90
52765;DHT22;38650;44.536;18.664;2023-04-03T02:20:58;9.60;99.90
52765;DHT22;38650;44.536;18.664;2023-04-03T02:23:24;9.60;99.90
52765;DHT22;38650;44.536;18.664;2023-04-03T02:25:49;9.40;99.90
52765;DHT22;38650;44.536;18.664;2023-04-03T02:28:15;9.30;99.90
52765;DHT22;38650;44.536;18.664;2023-04-03T02:30:40;9.30;99.90
52765;DHT22;38650;44.536;18.664;2023-04-03T02:33:06;9.30;99.90
52765;DHT22;38650;44.536;18.664;2023-04-03T02:35:32;9.20;99.90
52765;DHT22;38650;44.536;18.664;2023-04-03T02:37:57;9.10;99.90
52765;DHT22;38650;44.536;18.664;2023-04-03T02:40:23;9.20;99.90
52765;DHT22;38650;44.536;18.664;2023-04-03T02:42:48;9.20;99.90
52765;DHT22;38650;44.536;18.664;2023-04-03T02:45:14;9.30;99.90
52765;DHT22;38650;44.536;18.664;2023-04-03T02:47:39;9.40;99.90
52765;DHT22;38650;44.536;18.664;2023-04-03T02:50:05;9.30;99.90
52765;DHT22;38650;44.536;18.664;2023-04-03T02:52:31;9.30;99.90
52765;DHT22;38650;44.536;18.664;2023-04-03T02:54:57;9.30;99.90
52765;DHT22;38650;44.536;18.664;2023-04-03T02:57:22;9.40;99.90
52765;DHT22;38650;44.536;18.664;2023-04-03T02:59:48;9.30;99.90
52765;DHT22;38650;44.536;18.664;2023-04-03T03:02:13;9.30;99.90
52765;DHT22;38650;44.536;18.664;2023-04-03T03:04:39;9.20;99.90
52765;DHT22;38650;44.536;18.664;2023-04-03T03:07:05;8.90;99.90
52765;DHT22;38650;44.536;18.664;2023-04-03T03:09:30;8.90;99.90
52765;DHT22;38650;44.536;18.664;2023-04-03T03:11:56;8.90;99.90
52765;DHT22;38650;44.536;18.664;2023-04-03T03:14:22;9.00;99.90
52765;DHT22;38650;44.536;18.664;2023-04-03T03:16:47;8.90;99.90
52765;DHT22;38650;44.536;18.664;2023-04-03T03:19:13;8.90;99.90
52765;DHT22;38650;44.536;18.664;2023-04-03T03:21:39;8.90;99.90
52765;DHT22;38650;44.536;18.664;2023-04-03T03:24:04;8.90;99.90
52765;DHT22;38650;44.536;18.664;2023-04-03T03:26:30;8.90;99.90
52765;DHT22;38650;44.536;18.664;2023-04-03T03:28:55;8.90;99.90
52765;DHT22;38650;44.536;18.664;2023-04-03T03:31:21;8.80;99.90
52765;DHT22;38650;44.536;18.664;2023-04-03T03:33:47;8.80;99.90
52765;DHT22;38650;44.536;18.664;2023-04-03T03:36:12;8.80;99.90
52765;DHT22;38650;44.536;18.664;2023-04-03T03:38:38;8.90;99.90
52765;DHT22;38650;44.536;18.664;2023-04-03T03:41:03;8.90;99.90
52765;DHT22;38650;44.536;18.664;2023-04-03T03:43:29;9.00;99.90
52765;DHT22;38650;44.536;18.664;2023-04-03T03:45:55;9.00;99.90
52765;DHT22;38650;44.536;18.664;2023-04-03T03:48:21;8.80;99.90
52765;DHT22;38650;44.536;18.664;2023-04-03T03:50:46;8.80;99.90
52765;DHT22;38650;44.536;18.664;2023-04-03T03:53:12;8.70;99.90
52765;DHT22;38650;44.536;18.664;2023-04-03T03:55:38;8.40;99.90
52765;DHT22;38650;44.536;18.664;2023-04-03T03:58:03;8.30;99.90
52765;DHT22;38650;44.536;18.664;2023-04-03T04:00:29;8.10;99.90
52765;DHT22;38650;44.536;18.664;2023-04-03T04:02:55;8.00;99.90
52765;DHT22;38650;44.536;18.664;2023-04-03T04:05:21;7.90;99.90
52765;DHT22;38650;44.536;18.664;2023-04-03T04:07:47;8.00;99.90
52765;DHT22;38650;44.536;18.664;2023-04-03T04:10:12;8.10;99.90
52765;DHT22;38650;44.536;18.664;2023-04-03T04:12:39;8.00;99.90
52765;DHT22;38650;44.536;18.664;2023-04-03T04:15:04;8.00;99.90
52765;DHT22;38650;44.536;18.664;2023-04-03T04:17:30;7.90;99.90
52765;DHT22;38650;44.536;18.664;2023-04-03T04:19:55;7.90;99.90
52765;DHT22;38650;44.536;18.664;2023-04-03T04:22:21;7.70;99.90
52765;DHT22;38650;44.536;18.664;2023-04-03T04:24:47;7.70;99.90
52765;DHT22;38650;44.536;18.664;2023-04-03T04:27:12;7.70;99.90
52765;DHT22;38650;44.536;18.664;2023-04-03T04:29:38;7.80;99.90
52765;DHT22;38650;44.536;18.664;2023-04-03T04:32:03;7.80;99.90
52765;DHT22;38650;44.536;18.664;2023-04-03T04:34:30;7.80;99.90
52765;DHT22;38650;44.536;18.664;2023-04-03T04:36:55;7.90;99.90
52765;DHT22;38650;44.536;18.664;2023-04-03T04:39:21;7.80;99.90
52765;DHT22;38650;44.536;18.664;2023-04-03T04:41:47;7.70;99.90
52765;DHT22;38650;44.536;18.664;2023-04-03T04:44:12;7.70;99.90
52765;DHT22;38650;44.536;18.664;2023-04-03T04:46:38;7.70;99.90
52765;DHT22;38650;44.536;18.664;2023-04-03T04:49:03;7.70;99.90
52765;DHT22;38650;44.536;18.664;2023-04-03T04:51:29;7.70;99.90
52765;DHT22;38650;44.536;18.664;2023-04-03T04:53:54;7.80;99.90
52765;DHT22;38650;44.536;18.664;2023-04-03T04:56:20;7.80;99.90
52765;DHT22;38650;44.536;18.664;2023-04-03T04:58:46;7.70;99.90
52765;DHT22;38650;44.536;18.664;2023-04-03T05:01:11;7.70;99.90
52765;DHT22;38650;44.536;18.664;2023-04-03T05:03:37;7.70;99.90
52765;DHT22;38650;44.536;18.664;2023-04-03T05:06:02;7.60;99.90
52765;DHT22;38650;44.536;18.664;2023-04-03T05:08:28;7.50;99.90
52765;DHT22;38650;44.536;18.664;2023-04-03T05:10:54;7.40;99.90
52765;DHT22;38650;44.536;18.664;2023-04-03T05:13:19;7.30;99.90
52765;DHT22;38650;44.536;18.664;2023-04-03T05:15:45;7.30;99.90
52765;DHT22;38650;44.536;18.664;2023-04-03T05:18:11;7.40;99.90
52765;DHT22;38650;44.536;18.664;2023-04-03T05:20:37;7.40;99.90
52765;DHT22;38650;44.536;18.664;2023-04-03T05:23:02;7.30;99.90
52765;DHT22;38650;44.536;18.664;2023-04-03T05:25:28;7.10;99.90
52765;DHT22;38650;44.536;18.664;2023-04-03T05:27:53;7.10;99.90
52765;DHT22;38650;44.536;18.664;2023-04-03T05:30:19;7.10;99.90
52765;DHT22;38650;44.536;18.664;2023-04-03T05:32:44;7.10;99.90
52765;DHT22;38650;44.536;18.664;2023-04-03T05:35:10;7.10;99.90
52765;DHT22;38650;44.536;18.664;2023-04-03T05:37:36;7.30;99.90
52765;DHT22;38650;44.536;18.664;2023-04-03T05:40:02;7.40;99.90
52765;DHT22;38650;44.536;18.664;2023-04-03T05:42:28;7.40;99.90
52765;DHT22;38650;44.536;18.664;2023-04-03T05:44:53;7.50;99.90
52765;DHT22;38650;44.536;18.664;2023-04-03T05:47:19;7.50;99.90
52765;DHT22;38650;44.536;18.664;2023-04-03T05:49:45;7.50;99.90
52765;DHT22;38650;44.536;18.664;2023-04-03T05:52:18;7.50;99.90
52765;DHT22;38650;44.536;18.664;2023-04-03T05:54:45;7.50;99.90
52765;DHT22;38650;44.536;18.664;2023-04-03T05:57:14;7.60;99.90
52765;DHT22;38650;44.536;18.664;2023-04-03T05:59:39;7.50;99.90
52765;DHT22;38650;44.536;18.664;2023-04-03T06:02:05;7.40;99.90
52765;DHT22;38650;44.536;18.664;2023-04-03T06:04:30;7.50;99.90
52765;DHT22;38650;44.536;18.664;2023-04-03T06:06:57;7.60;99.90
52765;DHT22;38650;44.536;18.664;2023-04-03T06:09:24;7.50;99.90
52765;DHT22;38650;44.536;18.664;2023-04-03T06:11:50;7.30;99.90
52765;DHT22;38650;44.536;18.664;2023-04-03T06:14:16;7.30;99.90
52765;DHT22;38650;44.536;18.664;2023-04-03T06:16:42;7.30;99.90
52765;DHT22;38650;44.536;18.664;2023-04-03T06:19:09;7.40;99.90
52765;DHT22;38650;44.536;18.664;2023-04-03T06:21:35;7.50;99.90
52765;DHT22;38650;44.536;18.664;2023-04-03T06:24:01;7.60;99.90
52765;DHT22;38650;44.536;18.664;2023-04-03T06:26:27;7.70;99.90
52765;DHT22;38650;44.536;18.664;2023-04-03T06:28:53;7.70;99.90
52765;DHT22;38650;44.536;18.664;2023-04-03T06:31:19;7.70;99.90
52765;DHT22;38650;44.536;18.664;2023-04-03T06:33:45;7.70;99.90
52765;DHT22;38650;44.536;18.664;2023-04-03T06:36:11;7.60;99.90
52765;DHT22;38650;44.536;18.664;2023-04-03T06:38:37;7.40;99.90
52765;DHT22;38650;44.536;18.664;2023-04-03T06:41:03;7.50;99.90
52765;DHT22;38650;44.536;18.664;2023-04-03T06:43:28;7.60;99.90
52765;DHT22;38650;44.536;18.664;2023-04-03T06:45:54;7.80;99.90
52765;DHT22;38650;44.536;18.664;2023-04-03T06:48:22;7.80;99.90
52765;DHT22;38650;44.536;18.664;2023-04-03T06:50:48;7.80;99.90
52765;DHT22;38650;44.536;18.664;2023-04-03T06:53:14;7.80;99.90
52765;DHT22;38650;44.536;18.664;2023-04-03T06:55:40;7.90;99.90
52765;DHT22;38650;44.536;18.664;2023-04-03T06:58:08;8.00;99.90
52765;DHT22;38650;44.536;18.664;2023-04-03T07:00:36;8.00;99.90
52765;DHT22;38650;44.536;18.664;2023-04-03T07:03:03;8.00;99.90
52765;DHT22;38650;44.536;18.664;2023-04-03T07:05:32;8.00;99.90
52765;DHT22;38650;44.536;18.664;2023-04-03T07:08:01;8.00;99.90
52765;DHT22;38650;44.536;18.664;2023-04-03T07:10:32;8.00;99.90
52765;DHT22;38650;44.536;18.664;2023-04-03T07:13:02;8.00;99.90
52765;DHT22;38650;44.536;18.664;2023-04-03T07:15:31;8.00;99.90
52765;DHT22;38650;44.536;18.664;2023-04-03T07:18:00;8.10;99.90
52765;DHT22;38650;44.536;18.664;2023-04-03T07:20:26;8.20;99.90
52765;DHT22;38650;44.536;18.664;2023-04-03T07:22:51;8.20;99.90
52765;DHT22;38650;44.536;18.664;2023-04-03T07:25:17;8.10;99.90
52765;DHT22;38650;44.536;18.664;2023-04-03T07:27:56;8.10;99.90
52765;DHT22;38650;44.536;18.664;2023-04-03T07:30:23;8.10;99.90
52765;DHT22;38650;44.536;18.664;2023-04-03T07:33:01;8.20;99.90
52765;DHT22;38650;44.536;18.664;2023-04-03T07:35:37;8.10;99.90
52765;DHT22;38650;44.536;18.664;2023-04-03T07:38:08;7.80;99.90
52765;DHT22;38650;44.536;18.664;2023-04-03T07:40:44;7.70;99.90
52765;DHT22;38650;44.536;18.664;2023-04-03T07:43:11;7.80;99.90
52765;DHT22;38650;44.536;18.664;2023-04-03T07:45:41;7.80;99.90
52765;DHT22;38650;44.536;18.664;2023-04-03T07:48:11;7.90;99.90
52765;DHT22;38650;44.536;18.664;2023-04-03T07:50:49;7.90;99.90
52765;DHT22;38650;44.536;18.664;2023-04-03T07:53:19;8.00;99.90
52765;DHT22;38650;44.536;18.664;2023-04-03T07:55:53;7.80;99.90
52765;DHT22;38650;44.536;18.664;2023-04-03T07:58:22;7.70;99.90
52765;DHT22;38650;44.536;18.664;2023-04-03T08:00:48;7.80;99.90
52765;DHT22;38650;44.536;18.664;2023-04-03T08:03:14;7.80;99.90
52765;DHT22;38650;44.536;18.664;2023-04-03T08:05:46;7.80;99.90
52765;DHT22;38650;44.536;18.664;2023-04-03T08:08:17;7.90;99.90
52765;DHT22;38650;44.536;18.664;2023-04-03T08:13:53;8.10;99.90
52765;DHT22;38650;44.536;18.664;2023-04-03T08:16:22;8.20;99.90
52765;DHT22;38650;44.536;18.664;2023-04-03T08:18:53;8.10;99.90
52765;DHT22;38650;44.536;18.664;2023-04-03T08:21:18;8.20;99.90
52765;DHT22;38650;44.536;18.664;2023-04-03T08:23:44;8.00;99.90
52765;DHT22;38650;44.536;18.664;2023-04-03T08:26:13;7.90;99.90
52765;DHT22;38650;44.536;18.664;2023-04-03T08:28:39;7.90;99.90
52765;DHT22;38650;44.536;18.664;2023-04-03T08:31:06;7.90;99.90
52765;DHT22;38650;44.536;18.664;2023-04-03T08:33:33;7.90;99.90
52765;DHT22;38650;44.536;18.664;2023-04-03T08:35:59;8.00;99.90
52765;DHT22;38650;44.536;18.664;2023-04-03T08:38:26;8.10;99.90
52765;DHT22;38650;44.536;18.664;2023-04-03T08:41:14;8.10;99.90
52765;DHT22;38650;44.536;18.664;2023-04-03T08:46:11;8.00;99.90
52765;DHT22;38650;44.536;18.664;2023-04-03T08:48:39;8.00;99.90
52765;DHT22;38650;44.536;18.664;2023-04-03T08:51:14;8.10;99.90
52765;DHT22;38650;44.536;18.664;2023-04-03T08:53:42;8.30;99.90
52765;DHT22;38650;44.536;18.664;2023-04-03T08:56:09;8.40;99.90
52765;DHT22;38650;44.536;18.664;2023-04-03T09:03:45;8.30;99.90
52765;DHT22;38650;44.536;18.664;2023-04-03T09:08:43;8.30;99.90
52765;DHT22;38650;44.536;18.664;2023-04-03T09:18:57;8.20;99.90
52765;DHT22;38650;44.536;18.664;2023-04-03T09:21:37;8.00;99.90
52765;DHT22;38650;44.536;18.664;2023-04-03T09:24:04;8.10;99.90
52765;DHT22;38650;44.536;18.664;2023-04-03T09:29:07;8.00;99.90
52765;DHT22;38650;44.536;18.664;2023-04-03T09:31:36;8.10;99.90
52765;DHT22;38650;44.536;18.664;2023-04-03T09:34:05;8.20;99.90
52765;DHT22;38650;44.536;18.664;2023-04-03T09:36:39;8.30;99.90
52765;DHT22;38650;44.536;18.664;2023-04-03T09:39:05;8.50;99.90
52765;DHT22;38650;44.536;18.664;2023-04-03T09:41:34;8.60;99.90
52765;DHT22;38650;44.536;18.664;2023-04-03T09:43:59;8.70;99.90
52765;DHT22;38650;44.536;18.664;2023-04-03T09:48:57;8.90;99.90
52765;DHT22;38650;44.536;18.664;2023-04-03T09:51:27;9.00;99.90
52765;DHT22;38650;44.536;18.664;2023-04-03T09:53:53;9.00;99.90
52765;DHT22;38650;44.536;18.664;2023-04-03T09:56:25;9.00;99.90
52765;DHT22;38650;44.536;18.664;2023-04-03T09:59:06;8.80;99.90
52765;DHT22;38650;44.536;18.664;2023-04-03T10:01:33;8.70;99.90
52765;DHT22;38650;44.536;18.664;2023-04-03T10:04:06;8.50;99.90
52765;DHT22;38650;44.536;18.664;2023-04-03T10:06:34;8.60;99.90
52765;DHT22;38650;44.536;18.664;2023-04-03T10:11:56;8.70;99.90
52765;DHT22;38650;44.536;18.664;2023-04-03T10:14:22;8.70;99.90
52765;DHT22;38650;44.536;18.664;2023-04-03T10:16:51;8.70;99.90
52765;DHT22;38650;44.536;18.664;2023-04-03T10:24:28;8.70;99.90
52765;DHT22;38650;44.536;18.664;2023-04-03T10:26:58;8.80;99.90
52765;DHT22;38650;44.536;18.664;2023-04-03T10:34:42;8.80;99.90
52765;DHT22;38650;44.536;18.664;2023-04-03T10:49:48;8.50;99.90
52765;DHT22;38650;44.536;18.664;2023-04-03T10:55:27;8.60;99.90
52765;DHT22;38650;44.536;18.664;2023-04-03T10:57:30;8.70;99.90
52765;DHT22;38650;44.536;18.664;2023-04-03T10:59:57;8.70;99.90
52765;DHT22;38650;44.536;18.664;2023-04-03T11:02:31;8.80;99.90
52765;DHT22;38650;44.536;18.664;2023-04-03T11:05:01;8.90;99.90
52765;DHT22;38650;44.536;18.664;2023-04-03T11:07:29;8.80;99.90
52765;DHT22;38650;44.536;18.664;2023-04-03T11:10:02;8.90;99.90
52765;DHT22;38650;44.536;18.664;2023-04-03T11:12:44;8.80;99.90
52765;DHT22;38650;44.536;18.664;2023-04-03T11:15:15;8.60;99.90
52765;DHT22;38650;44.536;18.664;2023-04-03T11:17:46;8.50;99.90
52765;DHT22;38650;44.536;18.664;2023-04-03T11:20:23;8.60;99.90
52765;DHT22;38650;44.536;18.664;2023-04-03T11:23:35;8.50;99.90
52765;DHT22;38650;44.536;18.664;2023-04-03T11:25:41;8.30;99.90
52765;DHT22;38650;44.536;18.664;2023-04-03T11:28:12;8.20;99.90
52765;DHT22;38650;44.536;18.664;2023-04-03T11:35:48;8.30;99.90
52765;DHT22;38650;44.536;18.664;2023-04-03T11:38:25;8.40;99.90
52765;DHT22;38650;44.536;18.664;2023-04-03T11:40:52;8.40;99.90
52765;DHT22;38650;44.536;18.664;2023-04-03T11:43:28;8.60;99.90
52765;DHT22;38650;44.536;18.664;2023-04-03T11:46:02;8.60;99.90
52765;DHT22;38650;44.536;18.664;2023-04-03T11:50:56;8.50;99.90
52765;DHT22;38650;44.536;18.664;2023-04-03T11:53:35;8.40;99.90
52765;DHT22;38650;44.536;18.664;2023-04-03T12:01:49;8.40;99.90
52765;DHT22;38650;44.536;18.664;2023-04-03T12:04:17;8.40;99.90
52765;DHT22;38650;44.536;18.664;2023-04-03T12:09:26;8.50;99.90
52765;DHT22;38650;44.536;18.664;2023-04-03T12:11:52;8.60;99.90
52765;DHT22;38650;44.536;18.664;2023-04-03T12:14:18;8.60;99.90
52765;DHT22;38650;44.536;18.664;2023-04-03T12:16:47;8.60;99.90
52765;DHT22;38650;44.536;18.664;2023-04-03T12:24:38;8.70;99.90
52765;DHT22;38650;44.536;18.664;2023-04-03T12:30:16;8.50;99.90
52765;DHT22;38650;44.536;18.664;2023-04-03T12:43:35;8.50;99.90
52765;DHT22;38650;44.536;18.664;2023-04-03T12:48:39;8.50;99.90
52765;DHT22;38650;44.536;18.664;2023-04-03T12:51:54;8.60;99.90
52765;DHT22;38650;44.536;18.664;2023-04-03T12:54:04;8.60;99.90
52765;DHT22;38650;44.536;18.664;2023-04-03T12:56:38;8.60;99.90
52765;DHT22;38650;44.536;18.664;2023-04-03T13:04:47;8.60;99.90
52765;DHT22;38650;44.536;18.664;2023-04-03T13:07:25;8.60;99.90
52765;DHT22;38650;44.536;18.664;2023-04-03T13:10:38;8.50;99.90
52765;DHT22;38650;44.536;18.664;2023-04-03T13:18:24;8.70;99.90
52765;DHT22;38650;44.536;18.664;2023-04-03T13:20:51;8.70;99.90
52765;DHT22;38650;44.536;18.664;2023-04-03T13:23:17;8.70;99.90
52765;DHT22;38650;44.536;18.664;2023-04-03T13:25:46;8.80;99.90
52765;DHT22;38650;44.536;18.664;2023-04-03T13:28:17;8.80;99.90
52765;DHT22;38650;44.536;18.664;2023-04-03T13:30:54;8.90;99.90
52765;DHT22;38650;44.536;18.664;2023-04-03T13:33:21;9.00;99.90
52765;DHT22;38650;44.536;18.664;2023-04-03T13:35:47;9.00;99.90
52765;DHT22;38650;44.536;18.664;2023-04-03T13:40:52;8.90;99.90
52765;DHT22;38650;44.536;18.664;2023-04-03T13:46:28;8.60;99.90
52765;DHT22;38650;44.536;18.664;2023-04-03T13:48:54;8.60;99.90
52765;DHT22;38650;44.536;18.664;2023-04-03T13:51:21;8.60;99.90
52765;DHT22;38650;44.536;18.664;2023-04-03T13:53:52;8.60;99.90
52765;DHT22;38650;44.536;18.664;2023-04-03T13:56:24;8.70;99.90
52765;DHT22;38650;44.536;18.664;2023-04-03T13:59:34;8.80;99.90
52765;DHT22;38650;44.536;18.664;2023-04-03T14:07:10;9.10;99.90
52765;DHT22;38650;44.536;18.664;2023-04-03T14:09:36;9.00;99.90
52765;DHT22;38650;44.536;18.664;2023-04-03T14:15:10;9.00;99.90
52765;DHT22;38650;44.536;18.664;2023-04-03T14:17:37;9.00;99.90
52765;DHT22;38650;44.536;18.664;2023-04-03T14:20:03;9.00;99.90
52765;DHT22;38650;44.536;18.664;2023-04-03T14:25:32;9.00;99.90
52765;DHT22;38650;44.536;18.664;2023-04-03T14:27:58;9.00;99.90
52765;DHT22;38650;44.536;18.664;2023-04-03T14:30:29;9.00;99.90
52765;DHT22;38650;44.536;18.664;2023-04-03T14:32:55;8.90;99.90
52765;DHT22;38650;44.536;18.664;2023-04-03T14:35:21;8.90;99.90
52765;DHT22;38650;44.536;18.664;2023-04-03T14:40:50;8.90;99.90
52765;DHT22;38650;44.536;18.664;2023-04-03T14:43:16;8.80;99.90
52765;DHT22;38650;44.536;18.664;2023-04-03T14:45:43;8.80;99.90
52765;DHT22;38650;44.536;18.664;2023-04-03T14:48:22;8.90;99.90
52765;DHT22;38650;44.536;18.664;2023-04-03T14:50:49;8.90;99.90
52765;DHT22;38650;44.536;18.664;2023-04-03T14:53:14;8.90;99.90
52765;DHT22;38650;44.536;18.664;2023-04-03T14:55:46;8.90;99.90
52765;DHT22;38650;44.536;18.664;2023-04-03T14:58:16;8.90;99.90
52765;DHT22;38650;44.536;18.664;2023-04-03T15:00:43;9.00;99.90
52765;DHT22;38650;44.536;18.664;2023-04-03T15:06:12;9.00;99.90
52765;DHT22;38650;44.536;18.664;2023-04-03T15:08:38;8.90;99.90
52765;DHT22;38650;44.536;18.664;2023-04-03T15:11:06;9.00;99.90
52765;DHT22;38650;44.536;18.664;2023-04-03T15:13:32;9.00;99.90
52765;DHT22;38650;44.536;18.664;2023-04-03T15:15:57;8.80;99.90
52765;DHT22;38650;44.536;18.664;2023-04-03T15:18:24;8.80;99.90
52765;DHT22;38650;44.536;18.664;2023-04-03T15:20:51;8.80;99.90
52765;DHT22;38650;44.536;18.664;2023-04-03T15:23:17;8.90;99.90
52765;DHT22;38650;44.536;18.664;2023-04-03T15:25:43;8.80;99.90
52765;DHT22;38650;44.536;18.664;2023-04-03T15:28:16;8.90;99.90
52765;DHT22;38650;44.536;18.664;2023-04-03T15:30:42;8.80;99.90
52765;DHT22;38650;44.536;18.664;2023-04-03T15:33:08;8.60;99.90
52765;DHT22;38650;44.536;18.664;2023-04-03T15:35:33;8.60;99.90
52765;DHT22;38650;44.536;18.664;2023-04-03T15:37:59;8.60;99.90
52765;DHT22;38650;44.536;18.664;2023-04-03T15:40:25;8.60;99.90
52765;DHT22;38650;44.536;18.664;2023-04-03T15:42:51;8.70;99.90
52765;DHT22;38650;44.536;18.664;2023-04-03T15:45:16;8.70;99.90
52765;DHT22;38650;44.536;18.664;2023-04-03T15:47:42;8.80;99.90
52765;DHT22;38650;44.536;18.664;2023-04-03T15:50:08;8.80;99.90
52765;DHT22;38650;44.536;18.664;2023-04-03T15:52:34;8.70;99.90
52765;DHT22;38650;44.536;18.664;2023-04-03T15:54:59;8.70;99.90
52765;DHT22;38650;44.536;18.664;2023-04-03T15:57:25;8.70;99.90
52765;DHT22;38650;44.536;18.664;2023-04-03T15:59:52;8.60;99.90
52765;DHT22;38650;44.536;18.664;2023-04-03T16:02:17;8.60;99.90
52765;DHT22;38650;44.536;18.664;2023-04-03T16:07:46;8.70;99.90
52765;DHT22;38650;44.536;18.664;2023-04-03T16:10:13;8.80;99.90
52765;DHT22;38650;44.536;18.664;2023-04-03T16:12:39;8.70;99.90
52765;DHT22;38650;44.536;18.664;2023-04-03T16:18:08;8.70;99.90
52765;DHT22;38650;44.536;18.664;2023-04-03T16:20:34;8.70;99.90
52765;DHT22;38650;44.536;18.664;2023-04-03T16:22:59;8.70;99.90
52765;DHT22;38650;44.536;18.664;2023-04-03T16:25:25;8.70;99.90
52765;DHT22;38650;44.536;18.664;2023-04-03T16:27:51;8.60;99.90
52765;DHT22;38650;44.536;18.664;2023-04-03T16:30:17;8.50;99.90
52765;DHT22;38650;44.536;18.664;2023-04-03T16:32:42;8.50;99.90
52765;DHT22;38650;44.536;18.664;2023-04-03T16:35:09;8.50;99.90
52765;DHT22;38650;44.536;18.664;2023-04-03T16:37:36;8.60;99.90
52765;DHT22;38650;44.536;18.664;2023-04-03T16:40:02;8.60;99.90
52765;DHT22;38650;44.536;18.664;2023-04-03T16:42:28;8.60;99.90
52765;DHT22;38650;44.536;18.664;2023-04-03T16:44:53;8.50;99.90
52765;DHT22;38650;44.536;18.664;2023-04-03T16:47:19;8.40;99.90
52765;DHT22;38650;44.536;18.664;2023-04-03T16:49:45;8.30;99.90
52765;DHT22;38650;44.536;18.664;2023-04-03T16:52:11;8.30;99.90
52765;DHT22;38650;44.536;18.664;2023-04-03T16:54:37;8.30;99.90
52765;DHT22;38650;44.536;18.664;2023-04-03T16:57:02;8.20;99.90
52765;DHT22;38650;44.536;18.664;2023-04-03T16:59:28;8.10;99.90
52765;DHT22;38650;44.536;18.664;2023-04-03T17:01:53;8.20;99.90
52765;DHT22;38650;44.536;18.664;2023-04-03T17:04:19;8.30;99.90
52765;DHT22;38650;44.536;18.664;2023-04-03T17:06:45;8.40;99.90
52765;DHT22;38650;44.536;18.664;2023-04-03T17:09:10;8.40;99.90
52765;DHT22;38650;44.536;18.664;2023-04-03T17:11:37;8.40;99.90
52765;DHT22;38650;44.536;18.664;2023-04-03T17:14:03;8.40;99.90
52765;DHT22;38650;44.536;18.664;2023-04-03T17:16:29;8.30;99.90
52765;DHT22;38650;44.536;18.664;2023-04-03T17:18:55;8.30;99.90
52765;DHT22;38650;44.536;18.664;2023-04-03T17:21:21;8.30;99.90
52765;DHT22;38650;44.536;18.664;2023-04-03T17:23:49;8.40;99.90
52765;DHT22;38650;44.536;18.664;2023-04-03T17:26:16;8.30;99.90
52765;DHT22;38650;44.536;18.664;2023-04-03T17:28:42;8.20;99.90
52765;DHT22;38650;44.536;18.664;2023-04-03T17:31:07;8.30;99.90
52765;DHT22;38650;44.536;18.664;2023-04-03T17:33:33;8.30;99.90
52765;DHT22;38650;44.536;18.664;2023-04-03T17:35:59;8.30;99.90
52765;DHT22;38650;44.536;18.664;2023-04-03T17:38:29;8.40;99.90
52765;DHT22;38650;44.536;18.664;2023-04-03T17:40:55;8.40;99.90
52765;DHT22;38650;44.536;18.664;2023-04-03T17:43:21;8.30;99.90
52765;DHT22;38650;44.536;18.664;2023-04-03T17:45:46;8.30;99.90
52765;DHT22;38650;44.536;18.664;2023-04-03T17:48:12;8.40;99.90
52765;DHT22;38650;44.536;18.664;2023-04-03T17:50:37;8.40;99.90